Correll, Minnesota
Current Conditions -  °F | °C
As of 2:55 PM on Tuesday 25 Nov 2014 (Local Time) from KAQP Reporting Station
Broken Clouds Broken Clouds  
Wind Chill: 20°   Ceiling: 4000
Heat Index: 28°   Visibility: 10mi
Dew Point: 19°   Wind: 9mph
Humidity: 69%   Direction: 120°ESE
Pressure: 29.93"   Gusts: NA
Location:  45.23°N, 96.16°W
Report Text: KAQP 252055Z AUTO 12008KT 10SM BKN040 M02/M07 A2993 RMK AO2
Loading
Personal Weather Stations






























Interactive Weather Map New forecast layout! Learn more

10-Day Weather Forecast

Advertisements
Track Severe Weather on mobile